sensor_id;sensor_type;location;lat;lon;timestamp;P1;durP1;ratioP1;P2;durP2;ratioP2
3405;SDS011;10008;48.682;9.016;2022-08-04T00:00:10;6.90;;;4.13;;
3405;SDS011;10008;48.682;9.016;2022-08-04T00:05:39;6.50;;;3.30;;
3405;SDS011;10008;48.682;9.016;2022-08-04T00:11:07;6.47;;;4.00;;
3405;SDS011;10008;48.682;9.016;2022-08-04T00:13:36;5.70;;;3.73;;
3405;SDS011;10008;48.682;9.016;2022-08-04T00:16:07;6.20;;;3.87;;
3405;SDS011;10008;48.682;9.016;2022-08-04T00:18:38;7.90;;;3.90;;
3405;SDS011;10008;48.682;9.016;2022-08-04T00:21:06;6.17;;;4.10;;
3405;SDS011;10008;48.682;9.016;2022-08-04T00:23:35;6.13;;;3.30;;
3405;SDS011;10008;48.682;9.016;2022-08-04T00:26:03;5.50;;;3.43;;
3405;SDS011;10008;48.682;9.016;2022-08-04T00:28:29;6.07;;;3.40;;
3405;SDS011;10008;48.682;9.016;2022-08-04T00:30:55;6.73;;;3.37;;
3405;SDS011;10008;48.682;9.016;2022-08-04T00:33:21;5.50;;;2.80;;
3405;SDS011;10008;48.682;9.016;2022-08-04T00:35:48;6.50;;;2.90;;
3405;SDS011;10008;48.682;9.016;2022-08-04T00:38:15;4.83;;;2.63;;
3405;SDS011;10008;48.682;9.016;2022-08-04T00:47:06;6.87;;;2.77;;
3405;SDS011;10008;48.682;9.016;2022-08-04T00:52:01;4.90;;;2.60;;
3405;SDS011;10008;48.682;9.016;2022-08-04T01:01:01;6.97;;;2.70;;
3405;SDS011;10008;48.682;9.016;2022-08-04T01:20:06;6.20;;;3.30;;
3405;SDS011;10008;48.682;9.016;2022-08-04T01:30:37;5.20;;;2.90;;
3405;SDS011;10008;48.682;9.016;2022-08-04T01:33:07;5.87;;;3.27;;
3405;SDS011;10008;48.682;9.016;2022-08-04T01:35:47;5.30;;;3.10;;
3405;SDS011;10008;48.682;9.016;2022-08-04T01:40:54;6.73;;;3.97;;
3405;SDS011;10008;48.682;9.016;2022-08-04T01:43:23;6.20;;;3.70;;
3405;SDS011;10008;48.682;9.016;2022-08-04T01:46:02;6.00;;;3.90;;
3405;SDS011;10008;48.682;9.016;2022-08-04T01:48:29;6.23;;;3.93;;
3405;SDS011;10008;48.682;9.016;2022-08-04T01:50:59;7.97;;;4.20;;
3405;SDS011;10008;48.682;9.016;2022-08-04T01:53:33;7.17;;;4.00;;
3405;SDS011;10008;48.682;9.016;2022-08-04T01:56:01;6.30;;;3.70;;
3405;SDS011;10008;48.682;9.016;2022-08-04T01:58:28;6.77;;;2.93;;
3405;SDS011;10008;48.682;9.016;2022-08-04T02:03:29;5.43;;;3.50;;
3405;SDS011;10008;48.682;9.016;2022-08-04T02:08:44;6.27;;;4.20;;
3405;SDS011;10008;48.682;9.016;2022-08-04T02:11:19;7.07;;;4.40;;
3405;SDS011;10008;48.682;9.016;2022-08-04T02:14:15;6.10;;;4.10;;
3405;SDS011;10008;48.682;9.016;2022-08-04T02:17:11;6.30;;;4.30;;
3405;SDS011;10008;48.682;9.016;2022-08-04T02:20:02;8.00;;;4.27;;
3405;SDS011;10008;48.682;9.016;2022-08-04T02:22:26;6.60;;;4.07;;
3405;SDS011;10008;48.682;9.016;2022-08-04T02:24:57;6.13;;;4.13;;
3405;SDS011;10008;48.682;9.016;2022-08-04T02:27:31;6.00;;;4.47;;
3405;SDS011;10008;48.682;9.016;2022-08-04T02:30:04;6.60;;;3.97;;
3405;SDS011;10008;48.682;9.016;2022-08-04T02:32:35;5.90;;;3.73;;
3405;SDS011;10008;48.682;9.016;2022-08-04T02:35:06;5.00;;;3.07;;
3405;SDS011;10008;48.682;9.016;2022-08-04T02:37:36;5.77;;;3.73;;
3405;SDS011;10008;48.682;9.016;2022-08-04T02:40:03;6.10;;;3.73;;
3405;SDS011;10008;48.682;9.016;2022-08-04T02:42:33;6.47;;;4.13;;
3405;SDS011;10008;48.682;9.016;2022-08-04T02:44:59;5.83;;;3.77;;
3405;SDS011;10008;48.682;9.016;2022-08-04T02:47:26;6.90;;;3.67;;
3405;SDS011;10008;48.682;9.016;2022-08-04T02:49:53;6.00;;;3.10;;
3405;SDS011;10008;48.682;9.016;2022-08-04T02:52:22;6.07;;;2.60;;
3405;SDS011;10008;48.682;9.016;2022-08-04T02:54:52;5.00;;;3.00;;
3405;SDS011;10008;48.682;9.016;2022-08-04T02:57:22;5.13;;;2.70;;
3405;SDS011;10008;48.682;9.016;2022-08-04T03:00:07;4.43;;;2.37;;
3405;SDS011;10008;48.682;9.016;2022-08-04T03:08:23;5.30;;;3.10;;
3405;SDS011;10008;48.682;9.016;2022-08-04T03:36:06;6.20;;;3.90;;
3405;SDS011;10008;48.682;9.016;2022-08-04T03:39:02;7.40;;;4.30;;
3405;SDS011;10008;48.682;9.016;2022-08-04T03:42:05;6.80;;;4.00;;
3405;SDS011;10008;48.682;9.016;2022-08-04T04:21:26;5.97;;;3.47;;
3405;SDS011;10008;48.682;9.016;2022-08-04T04:26:43;6.57;;;3.43;;
3405;SDS011;10008;48.682;9.016;2022-08-04T04:29:50;5.57;;;3.10;;
3405;SDS011;10008;48.682;9.016;2022-08-04T04:56:33;6.60;;;3.90;;
3405;SDS011;10008;48.682;9.016;2022-08-04T04:59:08;5.47;;;3.50;;
3405;SDS011;10008;48.682;9.016;2022-08-04T05:01:39;6.03;;;3.80;;
3405;SDS011;10008;48.682;9.016;2022-08-04T05:04:28;6.03;;;3.50;;
3405;SDS011;10008;48.682;9.016;2022-08-04T05:15:19;5.90;;;3.53;;
3405;SDS011;10008;48.682;9.016;2022-08-04T05:17:53;6.30;;;3.90;;
3405;SDS011;10008;48.682;9.016;2022-08-04T05:20:22;8.80;;;4.63;;
3405;SDS011;10008;48.682;9.016;2022-08-04T05:25:29;7.13;;;4.43;;
3405;SDS011;10008;48.682;9.016;2022-08-04T05:28:14;6.77;;;4.20;;
3405;SDS011;10008;48.682;9.016;2022-08-04T05:30:45;7.63;;;3.80;;
3405;SDS011;10008;48.682;9.016;2022-08-04T05:33:15;6.43;;;3.60;;
3405;SDS011;10008;48.682;9.016;2022-08-04T05:35:51;6.43;;;3.53;;
3405;SDS011;10008;48.682;9.016;2022-08-04T05:38:19;5.80;;;3.10;;
3405;SDS011;10008;48.682;9.016;2022-08-04T05:40:48;6.30;;;3.60;;
3405;SDS011;10008;48.682;9.016;2022-08-04T05:43:16;6.97;;;3.30;;
3405;SDS011;10008;48.682;9.016;2022-08-04T05:45:43;7.03;;;4.10;;
3405;SDS011;10008;48.682;9.016;2022-08-04T05:48:12;8.43;;;4.30;;
3405;SDS011;10008;48.682;9.016;2022-08-04T05:50:38;7.00;;;3.67;;
3405;SDS011;10008;48.682;9.016;2022-08-04T05:53:05;7.90;;;3.80;;
3405;SDS011;10008;48.682;9.016;2022-08-04T05:55:32;6.03;;;3.10;;
3405;SDS011;10008;48.682;9.016;2022-08-04T05:57:58;5.50;;;2.80;;
3405;SDS011;10008;48.682;9.016;2022-08-04T06:00:26;4.80;;;2.80;;
3405;SDS011;10008;48.682;9.016;2022-08-04T06:02:53;5.23;;;2.83;;
3405;SDS011;10008;48.682;9.016;2022-08-04T06:05:21;9.70;;;4.10;;
3405;SDS011;10008;48.682;9.016;2022-08-04T06:07:49;6.53;;;2.90;;
3405;SDS011;10008;48.682;9.016;2022-08-04T06:10:15;6.37;;;3.00;;
3405;SDS011;10008;48.682;9.016;2022-08-04T06:12:57;5.57;;;2.93;;
3405;SDS011;10008;48.682;9.016;2022-08-04T06:15:30;5.47;;;2.80;;
3405;SDS011;10008;48.682;9.016;2022-08-04T06:18:02;5.03;;;2.80;;
3405;SDS011;10008;48.682;9.016;2022-08-04T06:20:32;5.00;;;3.00;;
3405;SDS011;10008;48.682;9.016;2022-08-04T06:23:01;4.90;;;2.63;;
3405;SDS011;10008;48.682;9.016;2022-08-04T06:25:31;5.20;;;2.83;;
3405;SDS011;10008;48.682;9.016;2022-08-04T06:28:01;6.57;;;2.87;;
3405;SDS011;10008;48.682;9.016;2022-08-04T06:30:30;5.67;;;2.90;;
3405;SDS011;10008;48.682;9.016;2022-08-04T06:32:58;9.67;;;2.87;;
3405;SDS011;10008;48.682;9.016;2022-08-04T06:35:27;4.63;;;2.60;;
3405;SDS011;10008;48.682;9.016;2022-08-04T06:37:54;6.50;;;3.23;;
3405;SDS011;10008;48.682;9.016;2022-08-04T06:40:22;5.37;;;3.30;;
3405;SDS011;10008;48.682;9.016;2022-08-04T06:42:49;5.40;;;2.90;;
3405;SDS011;10008;48.682;9.016;2022-08-04T06:45:16;5.37;;;2.97;;
3405;SDS011;10008;48.682;9.016;2022-08-04T06:47:44;5.53;;;2.80;;
3405;SDS011;10008;48.682;9.016;2022-08-04T06:50:11;7.07;;;3.00;;
3405;SDS011;10008;48.682;9.016;2022-08-04T06:52:38;7.50;;;2.70;;
3405;SDS011;10008;48.682;9.016;2022-08-04T06:55:05;7.70;;;2.60;;
3405;SDS011;10008;48.682;9.016;2022-08-04T06:57:34;5.30;;;2.77;;
3405;SDS011;10008;48.682;9.016;2022-08-04T07:00:04;5.00;;;2.47;;
3405;SDS011;10008;48.682;9.016;2022-08-04T07:02:37;7.80;;;2.80;;
3405;SDS011;10008;48.682;9.016;2022-08-04T07:05:13;6.63;;;3.00;;
3405;SDS011;10008;48.682;9.016;2022-08-04T07:07:40;4.50;;;2.30;;
3405;SDS011;10008;48.682;9.016;2022-08-04T07:10:06;5.73;;;2.50;;
3405;SDS011;10008;48.682;9.016;2022-08-04T07:12:33;4.80;;;2.23;;
3405;SDS011;10008;48.682;9.016;2022-08-04T07:14:59;5.47;;;2.63;;
3405;SDS011;10008;48.682;9.016;2022-08-04T07:17:27;8.13;;;2.40;;
3405;SDS011;10008;48.682;9.016;2022-08-04T07:19:54;6.23;;;2.70;;
3405;SDS011;10008;48.682;9.016;2022-08-04T07:22:21;5.20;;;2.50;;
3405;SDS011;10008;48.682;9.016;2022-08-04T07:24:52;7.37;;;2.30;;
3405;SDS011;10008;48.682;9.016;2022-08-04T07:27:20;4.83;;;2.43;;
3405;SDS011;10008;48.682;9.016;2022-08-04T07:29:46;7.40;;;3.07;;
3405;SDS011;10008;48.682;9.016;2022-08-04T07:32:12;5.53;;;2.60;;
3405;SDS011;10008;48.682;9.016;2022-08-04T07:34:40;5.53;;;2.70;;
3405;SDS011;10008;48.682;9.016;2022-08-04T07:37:07;4.83;;;2.60;;
3405;SDS011;10008;48.682;9.016;2022-08-04T07:39:33;5.50;;;2.30;;
3405;SDS011;10008;48.682;9.016;2022-08-04T07:42:01;5.73;;;2.60;;
3405;SDS011;10008;48.682;9.016;2022-08-04T07:44:31;5.17;;;2.40;;
3405;SDS011;10008;48.682;9.016;2022-08-04T07:46:59;7.37;;;2.67;;
3405;SDS011;10008;48.682;9.016;2022-08-04T07:49:26;6.20;;;2.50;;
3405;SDS011;10008;48.682;9.016;2022-08-04T07:51:52;4.83;;;2.70;;
3405;SDS011;10008;48.682;9.016;2022-08-04T07:54:19;5.60;;;2.63;;
3405;SDS011;10008;48.682;9.016;2022-08-04T07:56:45;4.07;;;2.20;;
3405;SDS011;10008;48.682;9.016;2022-08-04T07:59:16;4.43;;;2.23;;
3405;SDS011;10008;48.682;9.016;2022-08-04T08:01:42;4.87;;;2.40;;
3405;SDS011;10008;48.682;9.016;2022-08-04T08:04:10;5.83;;;2.63;;
3405;SDS011;10008;48.682;9.016;2022-08-04T08:06:37;4.50;;;2.00;;
3405;SDS011;10008;48.682;9.016;2022-08-04T08:09:08;4.40;;;2.00;;
3405;SDS011;10008;48.682;9.016;2022-08-04T08:11:39;4.67;;;2.00;;
3405;SDS011;10008;48.682;9.016;2022-08-04T08:14:08;5.00;;;2.40;;
3405;SDS011;10008;48.682;9.016;2022-08-04T08:16:34;4.10;;;1.80;;
3405;SDS011;10008;48.682;9.016;2022-08-04T08:19:01;5.80;;;2.37;;
3405;SDS011;10008;48.682;9.016;2022-08-04T08:21:28;5.10;;;2.10;;
3405;SDS011;10008;48.682;9.016;2022-08-04T08:23:54;3.87;;;1.80;;
3405;SDS011;10008;48.682;9.016;2022-08-04T08:26:20;5.10;;;2.60;;
3405;SDS011;10008;48.682;9.016;2022-08-04T08:28:46;4.70;;;2.60;;
3405;SDS011;10008;48.682;9.016;2022-08-04T08:31:12;5.43;;;2.60;;
3405;SDS011;10008;48.682;9.016;2022-08-04T08:33:38;4.40;;;2.17;;
3405;SDS011;10008;48.682;9.016;2022-08-04T08:36:22;4.80;;;2.20;;
3405;SDS011;10008;48.682;9.016;2022-08-04T08:42:08;4.40;;;2.43;;
3405;SDS011;10008;48.682;9.016;2022-08-04T09:07:45;6.53;;;2.60;;
3405;SDS011;10008;48.682;9.016;2022-08-04T09:10:53;4.50;;;2.60;;
3405;SDS011;10008;48.682;9.016;2022-08-04T09:13:43;5.00;;;2.30;;
3405;SDS011;10008;48.682;9.016;2022-08-04T09:16:27;5.10;;;2.27;;
3405;SDS011;10008;48.682;9.016;2022-08-04T09:19:07;4.50;;;2.20;;
3405;SDS011;10008;48.682;9.016;2022-08-04T09:21:39;6.03;;;2.60;;
3405;SDS011;10008;48.682;9.016;2022-08-04T09:24:21;5.30;;;2.50;;
3405;SDS011;10008;48.682;9.016;2022-08-04T09:26:56;4.70;;;2.20;;
3405;SDS011;10008;48.682;9.016;2022-08-04T09:35:33;5.07;;;2.50;;
3405;SDS011;10008;48.682;9.016;2022-08-04T09:38:16;4.88;;;2.40;;
3405;SDS011;10008;48.682;9.016;2022-08-04T09:41:01;5.40;;;2.20;;
3405;SDS011;10008;48.682;9.016;2022-08-04T09:46:31;4.35;;;2.22;;
3405;SDS011;10008;48.682;9.016;2022-08-04T09:49:02;7.13;;;2.40;;
3405;SDS011;10008;48.682;9.016;2022-08-04T09:59:44;4.47;;;2.15;;
3405;SDS011;10008;48.682;9.016;2022-08-04T10:02:12;4.50;;;1.95;;
3405;SDS011;10008;48.682;9.016;2022-08-04T10:04:42;4.55;;;2.30;;
3405;SDS011;10008;48.682;9.016;2022-08-04T10:07:17;4.95;;;2.35;;
3405;SDS011;10008;48.682;9.016;2022-08-04T10:26:22;4.00;;;2.00;;
3405;SDS011;10008;48.682;9.016;2022-08-04T10:29:18;4.50;;;2.00;;
3405;SDS011;10008;48.682;9.016;2022-08-04T10:31:54;3.80;;;1.83;;
3405;SDS011;10008;48.682;9.016;2022-08-04T10:34:25;5.60;;;2.00;;
3405;SDS011;10008;48.682;9.016;2022-08-04T10:37:14;3.40;;;1.50;;
3405;SDS011;10008;48.682;9.016;2022-08-04T10:39:51;3.72;;;1.58;;
3405;SDS011;10008;48.682;9.016;2022-08-04T10:42:48;4.75;;;1.80;;
3405;SDS011;10008;48.682;9.016;2022-08-04T10:45:32;3.50;;;1.45;;
3405;SDS011;10008;48.682;9.016;2022-08-04T10:48:05;3.58;;;1.58;;
3405;SDS011;10008;48.682;9.016;2022-08-04T10:50:39;3.90;;;1.70;;
3405;SDS011;10008;48.682;9.016;2022-08-04T10:53:18;6.03;;;3.42;;
3405;SDS011;10008;48.682;9.016;2022-08-04T10:55:51;4.15;;;1.80;;
3405;SDS011;10008;48.682;9.016;2022-08-04T10:58:24;5.78;;;2.30;;
3405;SDS011;10008;48.682;9.016;2022-08-04T11:00:56;3.88;;;1.50;;
3405;SDS011;10008;48.682;9.016;2022-08-04T11:03:34;5.80;;;2.03;;
3405;SDS011;10008;48.682;9.016;2022-08-04T11:06:06;4.57;;;2.20;;
3405;SDS011;10008;48.682;9.016;2022-08-04T11:08:41;6.25;;;2.10;;
3405;SDS011;10008;48.682;9.016;2022-08-04T11:11:29;4.43;;;1.63;;
3405;SDS011;10008;48.682;9.016;2022-08-04T11:14:01;3.55;;;1.52;;
3405;SDS011;10008;48.682;9.016;2022-08-04T11:16:38;5.45;;;1.85;;
3405;SDS011;10008;48.682;9.016;2022-08-04T11:19:36;4.65;;;1.77;;
3405;SDS011;10008;48.682;9.016;2022-08-04T11:24:51;6.28;;;1.98;;
3405;SDS011;10008;48.682;9.016;2022-08-04T11:30:39;4.00;;;2.08;;
3405;SDS011;10008;48.682;9.016;2022-08-04T11:36:02;4.18;;;2.13;;
3405;SDS011;10008;48.682;9.016;2022-08-04T11:41:41;5.25;;;1.80;;
3405;SDS011;10008;48.682;9.016;2022-08-04T11:44:21;3.80;;;2.00;;
3405;SDS011;10008;48.682;9.016;2022-08-04T11:46:58;4.07;;;2.10;;
3405;SDS011;10008;48.682;9.016;2022-08-04T11:52:05;4.72;;;2.13;;
3405;SDS011;10008;48.682;9.016;2022-08-04T11:54:34;4.35;;;2.00;;
3405;SDS011;10008;48.682;9.016;2022-08-04T11:57:01;3.88;;;2.03;;
3405;SDS011;10008;48.682;9.016;2022-08-04T11:59:29;4.55;;;2.17;;
3405;SDS011;10008;48.682;9.016;2022-08-04T12:04:55;4.13;;;2.53;;
3405;SDS011;10008;48.682;9.016;2022-08-04T12:10:29;5.00;;;2.20;;
3405;SDS011;10008;48.682;9.016;2022-08-04T12:15:56;5.75;;;2.03;;
3405;SDS011;10008;48.682;9.016;2022-08-04T12:18:39;3.92;;;1.90;;
3405;SDS011;10008;48.682;9.016;2022-08-04T12:21:32;6.28;;;2.15;;
3405;SDS011;10008;48.682;9.016;2022-08-04T12:24:04;6.22;;;2.20;;
3405;SDS011;10008;48.682;9.016;2022-08-04T12:26:46;5.93;;;1.98;;
3405;SDS011;10008;48.682;9.016;2022-08-04T12:29:21;5.00;;;2.10;;
3405;SDS011;10008;48.682;9.016;2022-08-04T12:31:56;4.32;;;2.00;;
3405;SDS011;10008;48.682;9.016;2022-08-04T12:34:31;5.15;;;2.28;;
3405;SDS011;10008;48.682;9.016;2022-08-04T12:37:17;4.37;;;2.43;;
3405;SDS011;10008;48.682;9.016;2022-08-04T12:39:53;4.50;;;2.07;;
3405;SDS011;10008;48.682;9.016;2022-08-04T12:45:03;5.77;;;2.60;;
3405;SDS011;10008;48.682;9.016;2022-08-04T12:47:31;4.47;;;2.33;;
3405;SDS011;10008;48.682;9.016;2022-08-04T12:50:00;4.60;;;2.27;;
3405;SDS011;10008;48.682;9.016;2022-08-04T12:55:35;7.68;;;2.65;;
3405;SDS011;10008;48.682;9.016;2022-08-04T12:58:02;5.70;;;2.50;;
3405;SDS011;10008;48.682;9.016;2022-08-04T13:00:39;6.57;;;2.70;;
3405;SDS011;10008;48.682;9.016;2022-08-04T13:03:06;4.38;;;2.33;;
3405;SDS011;10008;48.682;9.016;2022-08-04T13:05:39;6.65;;;2.40;;
3405;SDS011;10008;48.682;9.016;2022-08-04T13:08:06;4.50;;;2.45;;
3405;SDS011;10008;48.682;9.016;2022-08-04T13:10:38;6.38;;;2.28;;
3405;SDS011;10008;48.682;9.016;2022-08-04T13:13:11;4.68;;;2.65;;
3405;SDS011;10008;48.682;9.016;2022-08-04T13:15:42;4.68;;;2.70;;
3405;SDS011;10008;48.682;9.016;2022-08-04T13:18:18;4.33;;;2.53;;
3405;SDS011;10008;48.682;9.016;2022-08-04T13:20:45;5.22;;;2.70;;
3405;SDS011;10008;48.682;9.016;2022-08-04T13:23:15;5.88;;;2.40;;
3405;SDS011;10008;48.682;9.016;2022-08-04T13:25:44;5.70;;;2.30;;
3405;SDS011;10008;48.682;9.016;2022-08-04T13:28:17;7.93;;;2.80;;
3405;SDS011;10008;48.682;9.016;2022-08-04T13:30:45;7.50;;;2.70;;
3405;SDS011;10008;48.682;9.016;2022-08-04T13:33:17;4.95;;;2.70;;
3405;SDS011;10008;48.682;9.016;2022-08-04T13:35:44;5.35;;;2.58;;
3405;SDS011;10008;48.682;9.016;2022-08-04T13:38:12;6.43;;;2.60;;
3405;SDS011;10008;48.682;9.016;2022-08-04T13:40:40;4.20;;;2.40;;
3405;SDS011;10008;48.682;9.016;2022-08-04T13:43:08;4.73;;;2.23;;
3405;SDS011;10008;48.682;9.016;2022-08-04T13:45:37;5.63;;;2.60;;
3405;SDS011;10008;48.682;9.016;2022-08-04T13:48:05;9.57;;;2.60;;
3405;SDS011;10008;48.682;9.016;2022-08-04T13:50:33;5.00;;;2.73;;
3405;SDS011;10008;48.682;9.016;2022-08-04T13:53:02;7.67;;;2.43;;
3405;SDS011;10008;48.682;9.016;2022-08-04T13:55:32;5.97;;;2.60;;
3405;SDS011;10008;48.682;9.016;2022-08-04T14:01:18;7.20;;;2.77;;
3405;SDS011;10008;48.682;9.016;2022-08-04T14:03:30;4.50;;;2.30;;
3405;SDS011;10008;48.682;9.016;2022-08-04T14:06:04;6.10;;;2.40;;
3405;SDS011;10008;48.682;9.016;2022-08-04T14:08:52;5.27;;;2.60;;
3405;SDS011;10008;48.682;9.016;2022-08-04T14:11:30;6.30;;;3.00;;
3405;SDS011;10008;48.682;9.016;2022-08-04T14:13:57;8.33;;;2.83;;
3405;SDS011;10008;48.682;9.016;2022-08-04T14:16:22;6.10;;;3.33;;
3405;SDS011;10008;48.682;9.016;2022-08-04T14:18:56;5.30;;;2.40;;
3405;SDS011;10008;48.682;9.016;2022-08-04T14:21:24;5.20;;;2.90;;
3405;SDS011;10008;48.682;9.016;2022-08-04T14:23:51;6.00;;;2.77;;
3405;SDS011;10008;48.682;9.016;2022-08-04T14:26:24;6.03;;;2.57;;
3405;SDS011;10008;48.682;9.016;2022-08-04T14:29:05;6.77;;;2.70;;
3405;SDS011;10008;48.682;9.016;2022-08-04T14:31:36;7.73;;;3.80;;
3405;SDS011;10008;48.682;9.016;2022-08-04T14:34:02;6.13;;;2.80;;
3405;SDS011;10008;48.682;9.016;2022-08-04T14:36:28;4.63;;;3.00;;
3405;SDS011;10008;48.682;9.016;2022-08-04T14:39:09;6.00;;;2.67;;
3405;SDS011;10008;48.682;9.016;2022-08-04T14:41:44;5.67;;;3.40;;
3405;SDS011;10008;48.682;9.016;2022-08-04T14:44:11;8.30;;;2.77;;
3405;SDS011;10008;48.682;9.016;2022-08-04T14:46:55;4.60;;;2.63;;
3405;SDS011;10008;48.682;9.016;2022-08-04T14:49:23;5.30;;;2.73;;
3405;SDS011;10008;48.682;9.016;2022-08-04T14:51:57;4.90;;;2.70;;
3405;SDS011;10008;48.682;9.016;2022-08-04T14:54:29;6.07;;;3.00;;
3405;SDS011;10008;48.682;9.016;2022-08-04T14:56:59;5.13;;;2.63;;
3405;SDS011;10008;48.682;9.016;2022-08-04T14:59:26;4.63;;;2.47;;
3405;SDS011;10008;48.682;9.016;2022-08-04T15:02:09;5.23;;;2.73;;
3405;SDS011;10008;48.682;9.016;2022-08-04T15:04:37;5.47;;;2.60;;
3405;SDS011;10008;48.682;9.016;2022-08-04T15:07:04;6.43;;;2.70;;
3405;SDS011;10008;48.682;9.016;2022-08-04T15:09:32;5.00;;;2.60;;
3405;SDS011;10008;48.682;9.016;2022-08-04T15:11:58;5.40;;;2.53;;
3405;SDS011;10008;48.682;9.016;2022-08-04T15:14:24;5.23;;;2.60;;
3405;SDS011;10008;48.682;9.016;2022-08-04T15:16:50;4.40;;;2.43;;
3405;SDS011;10008;48.682;9.016;2022-08-04T15:19:16;4.10;;;2.33;;
3405;SDS011;10008;48.682;9.016;2022-08-04T15:21:42;6.30;;;2.53;;
3405;SDS011;10008;48.682;9.016;2022-08-04T15:24:08;7.27;;;2.53;;
3405;SDS011;10008;48.682;9.016;2022-08-04T15:26:38;5.73;;;2.50;;
3405;SDS011;10008;48.682;9.016;2022-08-04T15:29:10;4.70;;;2.60;;
3405;SDS011;10008;48.682;9.016;2022-08-04T15:31:52;4.90;;;2.80;;
3405;SDS011;10008;48.682;9.016;2022-08-04T15:34:19;5.30;;;3.70;;
3405;SDS011;10008;48.682;9.016;2022-08-04T15:36:54;4.27;;;2.33;;
3405;SDS011;10008;48.682;9.016;2022-08-04T15:42:03;5.73;;;2.90;;
3405;SDS011;10008;48.682;9.016;2022-08-04T15:44:54;5.80;;;2.80;;
3405;SDS011;10008;48.682;9.016;2022-08-04T15:47:45;5.40;;;2.90;;
3405;SDS011;10008;48.682;9.016;2022-08-04T15:50:26;5.03;;;2.77;;
3405;SDS011;10008;48.682;9.016;2022-08-04T15:52:59;4.87;;;2.80;;
3405;SDS011;10008;48.682;9.016;2022-08-04T15:55:34;5.07;;;2.30;;
3405;SDS011;10008;48.682;9.016;2022-08-04T15:58:03;6.17;;;2.87;;
3405;SDS011;10008;48.682;9.016;2022-08-04T16:16:30;5.80;;;2.73;;
3405;SDS011;10008;48.682;9.016;2022-08-04T16:24:19;4.83;;;2.83;;
3405;SDS011;10008;48.682;9.016;2022-08-04T16:26:52;4.63;;;2.80;;
3405;SDS011;10008;48.682;9.016;2022-08-04T16:29:33;8.43;;;4.83;;
3405;SDS011;10008;48.682;9.016;2022-08-04T16:37:03;5.07;;;2.50;;
3405;SDS011;10008;48.682;9.016;2022-08-04T16:39:31;6.53;;;2.80;;
3405;SDS011;10008;48.682;9.016;2022-08-04T16:41:57;5.63;;;3.10;;
3405;SDS011;10008;48.682;9.016;2022-08-04T16:44:33;5.03;;;3.10;;
3405;SDS011;10008;48.682;9.016;2022-08-04T16:47:06;4.27;;;2.40;;
3405;SDS011;10008;48.682;9.016;2022-08-04T16:49:32;6.27;;;2.80;;
3405;SDS011;10008;48.682;9.016;2022-08-04T16:52:05;5.40;;;2.70;;
3405;SDS011;10008;48.682;9.016;2022-08-04T16:54:32;6.00;;;2.80;;
3405;SDS011;10008;48.682;9.016;2022-08-04T16:57:06;6.63;;;2.80;;
3405;SDS011;10008;48.682;9.016;2022-08-04T16:59:33;4.87;;;2.70;;
3405;SDS011;10008;48.682;9.016;2022-08-04T17:01:59;4.73;;;2.90;;
3405;SDS011;10008;48.682;9.016;2022-08-04T17:04:29;5.50;;;3.40;;
3405;SDS011;10008;48.682;9.016;2022-08-04T17:07:00;7.83;;;3.40;;
3405;SDS011;10008;48.682;9.016;2022-08-04T17:09:28;6.33;;;2.70;;
3405;SDS011;10008;48.682;9.016;2022-08-04T17:11:54;5.07;;;2.33;;
3405;SDS011;10008;48.682;9.016;2022-08-04T17:14:22;4.90;;;2.70;;
3405;SDS011;10008;48.682;9.016;2022-08-04T17:16:52;6.10;;;3.10;;
3405;SDS011;10008;48.682;9.016;2022-08-04T17:19:20;5.27;;;2.63;;
3405;SDS011;10008;48.682;9.016;2022-08-04T17:21:46;5.13;;;2.80;;
3405;SDS011;10008;48.682;9.016;2022-08-04T17:24:13;5.50;;;2.73;;
3405;SDS011;10008;48.682;9.016;2022-08-04T17:26:40;5.57;;;2.60;;
3405;SDS011;10008;48.682;9.016;2022-08-04T17:29:06;5.80;;;3.20;;
3405;SDS011;10008;48.682;9.016;2022-08-04T17:31:32;6.23;;;3.00;;
3405;SDS011;10008;48.682;9.016;2022-08-04T17:34:02;5.50;;;2.20;;
3405;SDS011;10008;48.682;9.016;2022-08-04T17:36:35;7.10;;;2.87;;
3405;SDS011;10008;48.682;9.016;2022-08-04T17:39:09;8.03;;;3.10;;
3405;SDS011;10008;48.682;9.016;2022-08-04T17:41:37;6.93;;;3.70;;
3405;SDS011;10008;48.682;9.016;2022-08-04T17:44:03;5.50;;;3.10;;
3405;SDS011;10008;48.682;9.016;2022-08-04T17:51:37;4.80;;;3.57;;
3405;SDS011;10008;48.682;9.016;2022-08-04T17:54:31;5.63;;;2.77;;
3405;SDS011;10008;48.682;9.016;2022-08-04T17:57:18;4.80;;;2.80;;
3405;SDS011;10008;48.682;9.016;2022-08-04T17:59:45;5.80;;;3.27;;
3405;SDS011;10008;48.682;9.016;2022-08-04T18:02:22;5.20;;;3.83;;
3405;SDS011;10008;48.682;9.016;2022-08-04T18:04:50;5.23;;;3.00;;
3405;SDS011;10008;48.682;9.016;2022-08-04T18:07:20;5.97;;;3.50;;
3405;SDS011;10008;48.682;9.016;2022-08-04T18:09:49;5.63;;;3.60;;
3405;SDS011;10008;48.682;9.016;2022-08-04T18:12:28;6.80;;;3.47;;
3405;SDS011;10008;48.682;9.016;2022-08-04T18:14:57;5.00;;;3.27;;
3405;SDS011;10008;48.682;9.016;2022-08-04T18:17:34;5.57;;;3.40;;
3405;SDS011;10008;48.682;9.016;2022-08-04T18:20:13;6.83;;;3.43;;
3405;SDS011;10008;48.682;9.016;2022-08-04T18:22:43;5.30;;;3.30;;
3405;SDS011;10008;48.682;9.016;2022-08-04T18:25:13;7.10;;;3.60;;
3405;SDS011;10008;48.682;9.016;2022-08-04T18:27:54;5.70;;;3.60;;
3405;SDS011;10008;48.682;9.016;2022-08-04T18:30:21;6.27;;;3.20;;
3405;SDS011;10008;48.682;9.016;2022-08-04T18:32:49;6.87;;;3.40;;
3405;SDS011;10008;48.682;9.016;2022-08-04T18:35:16;7.30;;;3.27;;
3405;SDS011;10008;48.682;9.016;2022-08-04T18:37:42;7.13;;;3.57;;
3405;SDS011;10008;48.682;9.016;2022-08-04T18:40:08;8.10;;;5.70;;
3405;SDS011;10008;48.682;9.016;2022-08-04T18:42:37;8.10;;;5.30;;
3405;SDS011;10008;48.682;9.016;2022-08-04T18:45:03;8.47;;;5.47;;
3405;SDS011;10008;48.682;9.016;2022-08-04T18:47:30;8.33;;;6.93;;
3405;SDS011;10008;48.682;9.016;2022-08-04T18:49:56;7.17;;;4.80;;
3405;SDS011;10008;48.682;9.016;2022-08-04T18:52:22;7.33;;;3.60;;
3405;SDS011;10008;48.682;9.016;2022-08-04T18:54:48;7.27;;;4.03;;
3405;SDS011;10008;48.682;9.016;2022-08-04T18:57:19;7.47;;;3.83;;
3405;SDS011;10008;48.682;9.016;2022-08-04T18:59:46;5.50;;;3.53;;
3405;SDS011;10008;48.682;9.016;2022-08-04T19:02:12;6.47;;;4.03;;
3405;SDS011;10008;48.682;9.016;2022-08-04T19:04:39;7.03;;;4.37;;
3405;SDS011;10008;48.682;9.016;2022-08-04T19:07:05;8.10;;;4.40;;
3405;SDS011;10008;48.682;9.016;2022-08-04T19:09:31;7.20;;;4.77;;
3405;SDS011;10008;48.682;9.016;2022-08-04T19:11:57;5.93;;;4.03;;
3405;SDS011;10008;48.682;9.016;2022-08-04T19:14:23;6.63;;;4.10;;
3405;SDS011;10008;48.682;9.016;2022-08-04T19:16:49;11.00;;;4.40;;
3405;SDS011;10008;48.682;9.016;2022-08-04T19:19:15;7.00;;;4.03;;
3405;SDS011;10008;48.682;9.016;2022-08-04T19:21:42;5.80;;;4.00;;
3405;SDS011;10008;48.682;9.016;2022-08-04T19:24:08;7.37;;;4.27;;
3405;SDS011;10008;48.682;9.016;2022-08-04T19:26:36;7.27;;;4.67;;
3405;SDS011;10008;48.682;9.016;2022-08-04T19:29:02;7.10;;;4.57;;
3405;SDS011;10008;48.682;9.016;2022-08-04T19:31:29;8.10;;;4.47;;
3405;SDS011;10008;48.682;9.016;2022-08-04T19:33:54;6.53;;;4.20;;
3405;SDS011;10008;48.682;9.016;2022-08-04T19:36:20;8.53;;;5.60;;
3405;SDS011;10008;48.682;9.016;2022-08-04T19:38:48;8.10;;;5.80;;
3405;SDS011;10008;48.682;9.016;2022-08-04T19:41:14;10.40;;;7.37;;
3405;SDS011;10008;48.682;9.016;2022-08-04T19:43:40;13.10;;;9.17;;
3405;SDS011;10008;48.682;9.016;2022-08-04T19:46:07;8.83;;;6.80;;
3405;SDS011;10008;48.682;9.016;2022-08-04T19:48:33;10.70;;;8.77;;
3405;SDS011;10008;48.682;9.016;2022-08-04T19:50:59;9.27;;;8.37;;
3405;SDS011;10008;48.682;9.016;2022-08-04T19:53:25;8.47;;;6.00;;
3405;SDS011;10008;48.682;9.016;2022-08-04T19:55:51;7.37;;;5.20;;
3405;SDS011;10008;48.682;9.016;2022-08-04T19:58:17;9.10;;;5.27;;
3405;SDS011;10008;48.682;9.016;2022-08-04T20:00:46;8.40;;;6.30;;
3405;SDS011;10008;48.682;9.016;2022-08-04T20:03:12;11.80;;;6.30;;
3405;SDS011;10008;48.682;9.016;2022-08-04T20:05:42;12.50;;;10.97;;
3405;SDS011;10008;48.682;9.016;2022-08-04T20:08:08;11.53;;;10.27;;
3405;SDS011;10008;48.682;9.016;2022-08-04T20:10:35;9.20;;;5.20;;